MV Lockmaster — WDF4136 — position and weather

sailwx.info

Track history (hours):
 
Tides and Currents Weather Stations Pressure Air Temp Water Temp Dewpoint Dewpoint Depression Visibility Wind Speed Wind Dir Waves Ship Positions

MV Lockmaster

Owner: River Construction, Metaire, LA. More information available from US FCC via Universal Licensing System and Coast Guard Vessel Documentation Center.

Last reported at 2015-Jan-31 02:33 UTC. Time now 2015-Jan-31 10:12 UTC.
Position N 29°60' W 089°60'.

Type: Towing. MMSI: 367448420.

Date/timePositionNaut miles runAvg speedWind from/ knotsBaromVisibWave heightAir tempDewpointWater temp
2015-Jan-31 02:33N 29°60' W 089°60'3 3.1
2015-Jan-31 01:31N 29°58' W 090°02'1 0.7
2015-Jan-31 00:25N 29°58' W 090°02'3 3.1
2015-Jan-30 23:32N 29°60' W 089°59'0 0.0
2015-Jan-30 22:30N 29°60' W 089°59'0 0.0
2015-Jan-30 21:33N 29°60' W 089°59'0 0.0
2015-Jan-30 20:33N 29°60' W 089°59'0 0.0
2015-Jan-30 19:33N 29°60' W 089°59'0 0.1
2015-Jan-30 18:33N 29°60' W 089°59'1 0.3
2015-Jan-30 15:18N 30°00' W 089°58'1 1.4
2015-Jan-30 14:32N 29°60' W 089°59'0 0.1
2015-Jan-30 13:33N 29°60' W 089°59'0 0.0
2015-Jan-30 12:33N 29°60' W 089°59'0 0.0
2015-Jan-30 11:32N 29°60' W 089°59'0 0.0
2015-Jan-30 10:08N 29°60' W 089°59'0 0.0
2015-Jan-30 09:31N 29°60' W 089°59'0 0.1
2015-Jan-30 08:33N 30°00' W 089°59'4 3.6
2015-Jan-30 07:30N 30°01' W 089°55'3 3.1
2015-Jan-30 06:33N 30°00' W 089°58'1 0.9
2015-Jan-30 05:33N 29°60' W 089°59'0 0.0
2015-Jan-30 04:31N 29°60' W 089°59'0 0.0
2015-Jan-30 03:31N 29°60' W 089°59'0 0.1
2015-Jan-30 02:31N 30°00' W 089°59'0 0.0
2015-Jan-29 12:20N 29°60' W 089°59'0 0.0
2015-Jan-29 11:22N 29°60' W 089°59'0 0.0
2015-Jan-29 10:16N 29°60' W 089°59'0 0.0
2015-Jan-29 09:33N 29°60' W 089°59'0 0.0
2015-Jan-29 08:33N 29°60' W 089°59'0 0.0
2015-Jan-29 07:33N 29°60' W 089°59'0 0.0
2015-Jan-29 06:33N 29°60' W 089°59'0 0.1
2015-Jan-29 05:31N 29°60' W 089°59'4 2.5
2015-Jan-29 04:06N 30°01' W 089°55'4 7.7
2015-Jan-29 03:32N 29°60' W 090°00'2 2.3
2015-Jan-29 02:33N 29°58' W 090°02'2 1.9
2015-Jan-29 01:21N 29°56' W 089°60'2 3.0
2015-Jan-29 00:32N 29°58' W 090°02'2 1.7
2015-Jan-28 23:33N 29°60' W 090°01'1 1.4
2015-Jan-28 22:29N 29°60' W 089°59'0 0.0
2015-Jan-28 09:20N 29°60' W 089°59'0 0.0
2015-Jan-28 07:20N 29°60' W 089°59'0 0.0
2015-Jan-28 06:33N 29°60' W 089°59'0 0.0
2015-Jan-28 05:30N 29°60' W 089°59'2 0.8
2015-Jan-28 03:32N 29°60' W 090°01'4 4.1
2015-Jan-28 02:30N 30°00' W 089°56'2 1.4
2015-Jan-28 01:12N 30°01' W 089°54'5 8.0
2015-Jan-28 00:32N 29°60' W 090°00'0 0.3
2015-Jan-27 23:32N 29°60' W 090°01'1 1.2
2015-Jan-27 22:33N 29°60' W 089°59'0 0.0
2015-Jan-27 21:33N 29°60' W 089°59'0 0.2
2015-Jan-27 20:33N 29°60' W 089°59'4 3.5
2015-Jan-27 19:32N 29°57' W 090°02'2 2.3
2015-Jan-27 18:31N 29°55' W 090°04'1 1.1
2015-Jan-27 17:31N 29°55' W 090°05'7 0.6
2015-Jan-27 05:18N 29°60' W 089°59'0 0.0
2015-Jan-27 04:20N 29°60' W 089°59'0 0.0
2015-Jan-27 02:28N 29°60' W 089°59'0 0.0
2015-Jan-27 01:20N 29°60' W 089°59'5 5.5
2015-Jan-27 00:21N 30°01' W 089°53'4 4.9
2015-Jan-26 23:32N 30°00' W 089°58'1 1.4
2015-Jan-26 22:32N 29°60' W 089°59'0 0.0
2015-Jan-26 21:33N 29°60' W 089°59'3 2.9
2015-Jan-26 20:32N 30°00' W 089°56'3 1.4
2015-Jan-26 18:33N 29°60' W 089°59'3 2.8
2015-Jan-26 17:19N 29°57' W 090°01'2 2.1
2015-Jan-26 16:29N 29°56' W 089°59'3 3.2
2015-Jan-26 15:30N 29°58' W 090°02'3 0.4
2015-Jan-26 08:33N 29°60' W 089°59'0 0.0
2015-Jan-26 07:29N 29°60' W 089°59'0 0.0
2015-Jan-26 06:32N 29°60' W 089°59'0 0.0
2015-Jan-26 05:32N 29°60' W 089°59'3 2.6
2015-Jan-26 04:30N 29°58' W 090°02'2 1.9
2015-Jan-26 03:33N 29°57' W 090°03'0 0.3
2015-Jan-26 02:33N 29°57' W 090°04'1 0.7
2015-Jan-26 01:33N 29°57' W 090°04'0 0.5
2015-Jan-26 00:32N 29°57' W 090°04'1 1.2
2015-Jan-25 23:33N 29°58' W 090°02'3 3.4
2015-Jan-25 22:33N 29°60' W 089°60'0 0.2
2015-Jan-25 21:33N 29°60' W 089°59'3 2.8
2015-Jan-25 20:21N 30°00' W 089°56'1 0.6
2015-Jan-25 19:30N 30°00' W 089°56'2 1.8
2015-Jan-25 18:32N 30°00' W 089°58'1 1.1
2015-Jan-25 17:31N 29°60' W 089°59'0 0.0
2015-Jan-25 16:33N 29°60' W 089°59'0 0.0
2015-Jan-25 15:32N 29°60' W 089°59'0 0.1
2015-Jan-25 14:29N 29°60' W 089°59'6 4.4
2015-Jan-25 13:14N 30°01' W 089°53'5 6.9
2015-Jan-25 12:29N 30°00' W 089°59'3 0.3
2015-Jan-24 23:23N 29°58' W 090°02'3 1.1
2015-Jan-24 20:26N 29°60' W 089°59'0 0.0
2015-Jan-24 19:20N 29°60' W 089°59'0 0.0
2015-Jan-24 18:29N 29°60' W 089°59'0 0.0
2015-Jan-24 16:29N 29°60' W 089°59'0 0.0
2015-Jan-24 15:23N 29°60' W 089°59'0 0.1
2015-Jan-24 12:27N 30°00' W 089°59'0 0.3
2015-Jan-24 11:31N 29°60' W 089°59'0 0.0
2015-Jan-24 10:32N 29°60' W 089°59'0 0.0
2015-Jan-24 09:24N 29°60' W 089°59'0 0.0
2015-Jan-24 08:31N 29°60' W 089°59'3 2.5
2015-Jan-24 07:20N 30°00' W 089°56'4 3.9
2015-Jan-24 06:25N 29°60' W 090°00'2 2.5
2015-Jan-24 05:27N 29°58' W 090°02'1 0.7
2015-Jan-24 04:33N 29°57' W 090°01'2 2.1
2015-Jan-24 03:34N 29°56' W 090°04'1 0.9
2015-Jan-24 02:31N 29°57' W 090°04'1 0.9
2015-Jan-24 01:33N 29°56' W 090°04'1 0.9
2015-Jan-24 00:33N 29°57' W 090°04'0 0.4
2015-Jan-23 23:32N 29°58' W 090°03'0 0.0
2015-Jan-23 22:33N 29°58' W 090°03'1 1.0
2015-Jan-23 21:33N 29°58' W 090°02'2 1.7
2015-Jan-23 20:33N 29°59' W 090°01'2 1.7
2015-Jan-23 19:31N 29°60' W 089°59'0 0.5
2015-Jan-23 18:33N 29°60' W 090°00'2 2.2
2015-Jan-23 17:31N 29°58' W 090°02'0 0.3
2015-Jan-23 16:33N 29°58' W 090°02'0 0.4
2015-Jan-23 15:26N 29°57' W 090°01'2 1.8
2015-Jan-23 14:33N 29°59' W 090°01'2 1.8
2015-Jan-23 13:31N 29°60' W 089°59'0 0.0
2015-Jan-23 12:18N 29°60' W 089°59'0 0.0
2015-Jan-23 11:33N 29°60' W 089°59'0 0.0
2015-Jan-23 10:32N 29°60' W 089°59'0 0.0
2015-Jan-23 01:08N 29°60' W 089°59'0 0.0
2015-Jan-23 00:33N 29°60' W 089°59'0 0.0
2015-Jan-22 23:33N 29°60' W 089°59'0 0.0
2015-Jan-22 22:19N 29°60' W 089°59'0 0.0
2015-Jan-22 21:33N 29°60' W 089°59'0 0.0
2015-Jan-22 20:32N 29°60' W 089°59'0 0.0
2015-Jan-22 19:33N 29°60' W 089°59'0 0.0
2015-Jan-22 18:33N 29°60' W 089°59'0 0.0
2015-Jan-22 17:33N 29°60' W 089°59'0 0.0
2015-Jan-22 16:33N 29°60' W 089°59'0 0.0
2015-Jan-22 04:13N 29°60' W 089°59'0 0.0
2015-Jan-22 01:14N 30°00' W 089°59'0 0.1
2015-Jan-22 00:25N 29°60' W 089°59'0 0.0
2015-Jan-21 23:33N 29°60' W 089°59'0 0.0
2015-Jan-21 22:50N 29°60' W 089°59'0 0.1
2015-Jan-21 22:46N 29°60' W 089°59'0 0.0
2015-Jan-21 22:33N 29°60' W 089°59'0 0.0
2015-Jan-21 21:33N 29°60' W 089°59'0 0.2
2015-Jan-21 20:33N 30°00' W 089°59'0 0.2
2015-Jan-21 19:33N 29°60' W 089°59'0 0.0
2015-Jan-21 18:30N 29°60' W 089°59'0 0.0
2015-Jan-21 17:32N 29°60' W 089°59'2 2.2
2015-Jan-21 16:31N 29°59' W 090°02'0 0.0
2015-Jan-21 15:32N 29°59' W 090°02'0 0.0
2015-Jan-21 14:26N 29°59' W 090°02'  
Track history (hours):
 
Tides and Currents Weather Stations Pressure Air Temp Water Temp Dewpoint Dewpoint Depression Visibility Wind Speed Wind Dir Waves Ship Positions

MV Lockmaster

Owner: River Construction, Metaire, LA. More information available from US FCC via Universal Licensing System and Coast Guard Vessel Documentation Center.

Last reported at 2015-Jan-31 02:33 UTC. Time now 2015-Jan-31 10:12 UTC.
Position N 29°60' W 089°60'.

Type: Towing. MMSI: 367448420.

Date/timePositionNaut miles runAvg speedWind from/ knotsBaromVisibWave heightAir tempDewpointWater temp
2015-Jan-31 02:33N 29°60' W 089°60'3 3.1
2015-Jan-31 01:31N 29°58' W 090°02'1 0.7
2015-Jan-31 00:25N 29°58' W 090°02'3 3.1
2015-Jan-30 23:32N 29°60' W 089°59'0 0.0
2015-Jan-30 22:30N 29°60' W 089°59'0 0.0
2015-Jan-30 21:33N 29°60' W 089°59'0 0.0
2015-Jan-30 20:33N 29°60' W 089°59'0 0.0
2015-Jan-30 19:33N 29°60' W 089°59'0 0.1
2015-Jan-30 18:33N 29°60' W 089°59'1 0.3
2015-Jan-30 15:18N 30°00' W 089°58'1 1.4
2015-Jan-30 14:32N 29°60' W 089°59'0 0.1
2015-Jan-30 13:33N 29°60' W 089°59'0 0.0
2015-Jan-30 12:33N 29°60' W 089°59'0 0.0
2015-Jan-30 11:32N 29°60' W 089°59'0 0.0
2015-Jan-30 10:08N 29°60' W 089°59'0 0.0
2015-Jan-30 09:31N 29°60' W 089°59'0 0.1
2015-Jan-30 08:33N 30°00' W 089°59'4 3.6
2015-Jan-30 07:30N 30°01' W 089°55'3 3.1
2015-Jan-30 06:33N 30°00' W 089°58'1 0.9
2015-Jan-30 05:33N 29°60' W 089°59'0 0.0
2015-Jan-30 04:31N 29°60' W 089°59'0 0.0
2015-Jan-30 03:31N 29°60' W 089°59'0 0.1
2015-Jan-30 02:31N 30°00' W 089°59'0 0.0
2015-Jan-29 12:20N 29°60' W 089°59'0 0.0
2015-Jan-29 11:22N 29°60' W 089°59'0 0.0
2015-Jan-29 10:16N 29°60' W 089°59'0 0.0
2015-Jan-29 09:33N 29°60' W 089°59'0 0.0
2015-Jan-29 08:33N 29°60' W 089°59'0 0.0
2015-Jan-29 07:33N 29°60' W 089°59'0 0.0
2015-Jan-29 06:33N 29°60' W 089°59'0 0.1
2015-Jan-29 05:31N 29°60' W 089°59'4 2.5
2015-Jan-29 04:06N 30°01' W 089°55'4 7.7
2015-Jan-29 03:32N 29°60' W 090°00'2 2.3
2015-Jan-29 02:33N 29°58' W 090°02'2 1.9
2015-Jan-29 01:21N 29°56' W 089°60'2 3.0
2015-Jan-29 00:32N 29°58' W 090°02'2 1.7
2015-Jan-28 23:33N 29°60' W 090°01'1 1.4
2015-Jan-28 22:29N 29°60' W 089°59'0 0.0
2015-Jan-28 09:20N 29°60' W 089°59'0 0.0
2015-Jan-28 07:20N 29°60' W 089°59'0 0.0
2015-Jan-28 06:33N 29°60' W 089°59'0 0.0
2015-Jan-28 05:30N 29°60' W 089°59'2 0.8
2015-Jan-28 03:32N 29°60' W 090°01'4 4.1
2015-Jan-28 02:30N 30°00' W 089°56'2 1.4
2015-Jan-28 01:12N 30°01' W 089°54'5 8.0
2015-Jan-28 00:32N 29°60' W 090°00'0 0.3
2015-Jan-27 23:32N 29°60' W 090°01'1 1.2
2015-Jan-27 22:33N 29°60' W 089°59'0 0.0
2015-Jan-27 21:33N 29°60' W 089°59'0 0.2
2015-Jan-27 20:33N 29°60' W 089°59'4 3.5
2015-Jan-27 19:32N 29°57' W 090°02'2 2.3
2015-Jan-27 18:31N 29°55' W 090°04'1 1.1
2015-Jan-27 17:31N 29°55' W 090°05'7 0.6
2015-Jan-27 05:18N 29°60' W 089°59'0 0.0
2015-Jan-27 04:20N 29°60' W 089°59'0 0.0
2015-Jan-27 02:28N 29°60' W 089°59'0 0.0
2015-Jan-27 01:20N 29°60' W 089°59'5 5.5
2015-Jan-27 00:21N 30°01' W 089°53'4 4.9
2015-Jan-26 23:32N 30°00' W 089°58'1 1.4
2015-Jan-26 22:32N 29°60' W 089°59'0 0.0
2015-Jan-26 21:33N 29°60' W 089°59'3 2.9
2015-Jan-26 20:32N 30°00' W 089°56'3 1.4
2015-Jan-26 18:33N 29°60' W 089°59'3 2.8
2015-Jan-26 17:19N 29°57' W 090°01'2 2.1
2015-Jan-26 16:29N 29°56' W 089°59'3 3.2
2015-Jan-26 15:30N 29°58' W 090°02'3 0.4
2015-Jan-26 08:33N 29°60' W 089°59'0 0.0
2015-Jan-26 07:29N 29°60' W 089°59'0 0.0
2015-Jan-26 06:32N 29°60' W 089°59'0 0.0
2015-Jan-26 05:32N 29°60' W 089°59'3 2.6
2015-Jan-26 04:30N 29°58' W 090°02'2 1.9
2015-Jan-26 03:33N 29°57' W 090°03'0 0.3
2015-Jan-26 02:33N 29°57' W 090°04'1 0.7
2015-Jan-26 01:33N 29°57' W 090°04'0 0.5
2015-Jan-26 00:32N 29°57' W 090°04'1 1.2
2015-Jan-25 23:33N 29°58' W 090°02'3 3.4
2015-Jan-25 22:33N 29°60' W 089°60'0 0.2
2015-Jan-25 21:33N 29°60' W 089°59'3 2.8
2015-Jan-25 20:21N 30°00' W 089°56'1 0.6
2015-Jan-25 19:30N 30°00' W 089°56'2 1.8
2015-Jan-25 18:32N 30°00' W 089°58'1 1.1
2015-Jan-25 17:31N 29°60' W 089°59'0 0.0
2015-Jan-25 16:33N 29°60' W 089°59'0 0.0
2015-Jan-25 15:32N 29°60' W 089°59'0 0.1
2015-Jan-25 14:29N 29°60' W 089°59'6 4.4
2015-Jan-25 13:14N 30°01' W 089°53'5 6.9
2015-Jan-25 12:29N 30°00' W 089°59'3 0.3
2015-Jan-24 23:23N 29°58' W 090°02'3 1.1
2015-Jan-24 20:26N 29°60' W 089°59'0 0.0
2015-Jan-24 19:20N 29°60' W 089°59'0 0.0
2015-Jan-24 18:29N 29°60' W 089°59'0 0.0
2015-Jan-24 16:29N 29°60' W 089°59'0 0.0
2015-Jan-24 15:23N 29°60' W 089°59'0 0.1
2015-Jan-24 12:27N 30°00' W 089°59'0 0.3
2015-Jan-24 11:31N 29°60' W 089°59'0 0.0
2015-Jan-24 10:32N 29°60' W 089°59'0 0.0
2015-Jan-24 09:24N 29°60' W 089°59'0 0.0
2015-Jan-24 08:31N 29°60' W 089°59'3 2.5
2015-Jan-24 07:20N 30°00' W 089°56'4 3.9
2015-Jan-24 06:25N 29°60' W 090°00'2 2.5
2015-Jan-24 05:27N 29°58' W 090°02'1 0.7
2015-Jan-24 04:33N 29°57' W 090°01'2 2.1
2015-Jan-24 03:34N 29°56' W 090°04'1 0.9
2015-Jan-24 02:31N 29°57' W 090°04'1 0.9
2015-Jan-24 01:33N 29°56' W 090°04'1 0.9
2015-Jan-24 00:33N 29°57' W 090°04'0 0.4
2015-Jan-23 23:32N 29°58' W 090°03'0 0.0
2015-Jan-23 22:33N 29°58' W 090°03'1 1.0
2015-Jan-23 21:33N 29°58' W 090°02'2 1.7
2015-Jan-23 20:33N 29°59' W 090°01'2 1.7
2015-Jan-23 19:31N 29°60' W 089°59'0 0.5
2015-Jan-23 18:33N 29°60' W 090°00'2 2.2
2015-Jan-23 17:31N 29°58' W 090°02'0 0.3
2015-Jan-23 16:33N 29°58' W 090°02'0 0.4
2015-Jan-23 15:26N 29°57' W 090°01'2 1.8
2015-Jan-23 14:33N 29°59' W 090°01'2 1.8
2015-Jan-23 13:31N 29°60' W 089°59'0 0.0
2015-Jan-23 12:18N 29°60' W 089°59'0 0.0
2015-Jan-23 11:33N 29°60' W 089°59'0 0.0
2015-Jan-23 10:32N 29°60' W 089°59'0 0.0
2015-Jan-23 01:08N 29°60' W 089°59'0 0.0
2015-Jan-23 00:33N 29°60' W 089°59'0 0.0
2015-Jan-22 23:33N 29°60' W 089°59'0 0.0
2015-Jan-22 22:19N 29°60' W 089°59'0 0.0
2015-Jan-22 21:33N 29°60' W 089°59'0 0.0
2015-Jan-22 20:32N 29°60' W 089°59'0 0.0
2015-Jan-22 19:33N 29°60' W 089°59'0 0.0
2015-Jan-22 18:33N 29°60' W 089°59'0 0.0
2015-Jan-22 17:33N 29°60' W 089°59'0 0.0
2015-Jan-22 16:33N 29°60' W 089°59'0 0.0
2015-Jan-22 04:13N 29°60' W 089°59'0 0.0
2015-Jan-22 01:14N 30°00' W 089°59'0 0.1
2015-Jan-22 00:25N 29°60' W 089°59'0 0.0
2015-Jan-21 23:33N 29°60' W 089°59'0 0.0
2015-Jan-21 22:50N 29°60' W 089°59'0 0.1
2015-Jan-21 22:46N 29°60' W 089°59'0 0.0
2015-Jan-21 22:33N 29°60' W 089°59'0 0.0
2015-Jan-21 21:33N 29°60' W 089°59'0 0.2
2015-Jan-21 20:33N 30°00' W 089°59'0 0.2
2015-Jan-21 19:33N 29°60' W 089°59'0 0.0
2015-Jan-21 18:30N 29°60' W 089°59'0 0.0
2015-Jan-21 17:32N 29°60' W 089°59'2 2.2
2015-Jan-21 16:31N 29°59' W 090°02'0 0.0
2015-Jan-21 15:32N 29°59' W 090°02'0 0.0
2015-Jan-21 14:26N 29°59' W 090°02'  

Dump ship's entire track history